sensor_id;sensor_type;location;lat;lon;timestamp;pressure;altitude;pressure_sealevel;temperature;humidity
4415;BME280;2220;42.670;23.398;2023-07-31T00:00:29;94242.44;;;21.60;100.00
4415;BME280;2220;42.670;23.398;2023-07-31T00:02:55;94242.09;;;21.61;100.00
4415;BME280;2220;42.670;23.398;2023-07-31T00:05:21;94246.53;;;21.57;100.00
4415;BME280;2220;42.670;23.398;2023-07-31T00:07:46;94245.31;;;21.55;100.00
4415;BME280;2220;42.670;23.398;2023-07-31T00:10:12;94243.94;;;21.45;100.00
4415;BME280;2220;42.670;23.398;2023-07-31T00:12:39;94236.41;;;21.47;100.00
4415;BME280;2220;42.670;23.398;2023-07-31T00:15:06;94223.06;;;21.43;100.00
4415;BME280;2220;42.670;23.398;2023-07-31T00:17:32;94235.56;;;21.43;100.00
4415;BME280;2220;42.670;23.398;2023-07-31T00:19:57;94226.63;;;21.35;100.00
4415;BME280;2220;42.670;23.398;2023-07-31T00:22:22;94205.53;;;21.39;100.00
4415;BME280;2220;42.670;23.398;2023-07-31T00:24:48;94194.06;;;21.35;100.00
4415;BME280;2220;42.670;23.398;2023-07-31T00:27:13;94183.91;;;21.37;100.00
4415;BME280;2220;42.670;23.398;2023-07-31T00:29:39;94200.56;;;21.37;100.00
4415;BME280;2220;42.670;23.398;2023-07-31T00:32:05;94185.78;;;21.36;100.00
4415;BME280;2220;42.670;23.398;2023-07-31T00:34:30;94171.78;;;21.36;100.00
4415;BME280;2220;42.670;23.398;2023-07-31T00:36:56;94163.41;;;21.34;100.00
4415;BME280;2220;42.670;23.398;2023-07-31T00:39:21;94140.22;;;21.31;100.00
4415;BME280;2220;42.670;23.398;2023-07-31T00:41:47;94124.31;;;21.31;100.00
4415;BME280;2220;42.670;23.398;2023-07-31T00:44:12;94132.47;;;21.38;100.00
4415;BME280;2220;42.670;23.398;2023-07-31T00:46:37;94124.09;;;21.36;100.00
4415;BME280;2220;42.670;23.398;2023-07-31T00:49:03;94100.53;;;21.18;100.00
4415;BME280;2220;42.670;23.398;2023-07-31T00:51:29;94062.31;;;21.04;100.00
4415;BME280;2220;42.670;23.398;2023-07-31T00:53:55;94034.28;;;21.03;100.00
4415;BME280;2220;42.670;23.398;2023-07-31T00:56:22;94016.69;;;20.94;100.00
4415;BME280;2220;42.670;23.398;2023-07-31T00:58:47;93995.59;;;20.98;100.00
4415;BME280;2220;42.670;23.398;2023-07-31T01:01:13;93966.28;;;20.91;100.00
4415;BME280;2220;42.670;23.398;2023-07-31T01:03:38;93929.38;;;20.82;100.00
4415;BME280;2220;42.670;23.398;2023-07-31T01:06:24;93896.03;;;20.78;100.00
4415;BME280;2220;42.670;23.398;2023-07-31T01:09:03;93847.53;;;20.74;100.00
4415;BME280;2220;42.670;23.398;2023-07-31T01:11:35;93825.41;;;20.66;100.00
4415;BME280;2220;42.670;23.398;2023-07-31T01:14:03;93783.00;;;20.62;100.00
4415;BME280;2220;42.670;23.398;2023-07-31T01:16:29;93733.00;;;20.57;100.00
4415;BME280;2220;42.670;23.398;2023-07-31T01:18:54;93711.06;;;20.57;100.00
4415;BME280;2220;42.670;23.398;2023-07-31T01:24:19;93645.47;;;20.47;100.00
4415;BME280;2220;42.670;23.398;2023-07-31T01:31:54;93566.28;;;20.38;100.00
4415;BME280;2220;42.670;23.398;2023-07-31T01:34:21;93534.81;;;20.33;100.00
4415;BME280;2220;42.670;23.398;2023-07-31T01:36:47;93508.03;;;20.34;100.00
4415;BME280;2220;42.670;23.398;2023-07-31T01:39:13;93492.09;;;20.31;100.00
4415;BME280;2220;42.670;23.398;2023-07-31T01:41:40;93475.38;;;20.27;100.00
4415;BME280;2220;42.670;23.398;2023-07-31T01:44:06;93452.31;;;20.24;100.00
4415;BME280;2220;42.670;23.398;2023-07-31T01:46:31;93435.69;;;20.23;100.00
4415;BME280;2220;42.670;23.398;2023-07-31T01:48:57;93420.16;;;20.22;100.00
4415;BME280;2220;42.670;23.398;2023-07-31T01:51:22;93392.19;;;20.21;100.00
4415;BME280;2220;42.670;23.398;2023-07-31T01:53:48;93376.75;;;20.23;100.00
4415;BME280;2220;42.670;23.398;2023-07-31T01:56:13;93367.63;;;20.20;100.00
4415;BME280;2220;42.670;23.398;2023-07-31T01:58:39;93334.72;;;20.18;100.00
4415;BME280;2220;42.670;23.398;2023-07-31T02:01:05;93309.00;;;20.15;100.00
4415;BME280;2220;42.670;23.398;2023-07-31T02:03:30;93289.31;;;20.12;100.00
4415;BME280;2220;42.670;23.398;2023-07-31T02:05:56;93246.34;;;20.15;100.00
4415;BME280;2220;42.670;23.398;2023-07-31T02:08:22;93204.59;;;20.05;100.00
4415;BME280;2220;42.670;23.398;2023-07-31T02:10:47;93190.06;;;20.15;100.00
4415;BME280;2220;42.670;23.398;2023-07-31T02:13:13;93162.88;;;20.14;100.00
4415;BME280;2220;42.670;23.398;2023-07-31T02:15:38;93131.84;;;20.11;100.00
4415;BME280;2220;42.670;23.398;2023-07-31T02:18:03;93118.69;;;20.15;100.00
4415;BME280;2220;42.670;23.398;2023-07-31T02:20:29;93102.38;;;20.09;100.00
4415;BME280;2220;42.670;23.398;2023-07-31T02:22:54;93063.84;;;20.08;100.00
4415;BME280;2220;42.670;23.398;2023-07-31T02:25:20;93024.88;;;20.01;100.00
4415;BME280;2220;42.670;23.398;2023-07-31T02:27:45;92982.56;;;19.98;100.00
4415;BME280;2220;42.670;23.398;2023-07-31T02:30:11;92946.34;;;20.02;100.00
4415;BME280;2220;42.670;23.398;2023-07-31T02:32:36;92904.81;;;19.99;100.00
4415;BME280;2220;42.670;23.398;2023-07-31T02:35:02;92873.53;;;20.04;100.00
4415;BME280;2220;42.670;23.398;2023-07-31T02:37:27;92843.69;;;20.04;100.00
4415;BME280;2220;42.670;23.398;2023-07-31T02:39:54;92821.13;;;20.10;100.00
4415;BME280;2220;42.670;23.398;2023-07-31T02:42:19;92817.41;;;20.15;100.00
4415;BME280;2220;42.670;23.398;2023-07-31T02:44:45;92816.66;;;20.14;100.00
4415;BME280;2220;42.670;23.398;2023-07-31T02:47:10;92800.88;;;20.21;100.00
4415;BME280;2220;42.670;23.398;2023-07-31T02:49:35;92810.72;;;20.28;100.00
4415;BME280;2220;42.670;23.398;2023-07-31T02:52:01;92835.66;;;20.27;100.00
4415;BME280;2220;42.670;23.398;2023-07-31T02:54:26;92845.53;;;20.33;100.00
4415;BME280;2220;42.670;23.398;2023-07-31T02:56:52;92853.78;;;20.28;100.00
4415;BME280;2220;42.670;23.398;2023-07-31T02:59:17;92866.69;;;20.33;100.00
4415;BME280;2220;42.670;23.398;2023-07-31T03:01:44;92877.63;;;20.32;100.00
4415;BME280;2220;42.670;23.398;2023-07-31T03:04:09;92877.28;;;20.37;100.00
4415;BME280;2220;42.670;23.398;2023-07-31T03:06:35;92882.25;;;20.38;100.00
4415;BME280;2220;42.670;23.398;2023-07-31T03:09:00;92898.56;;;20.44;100.00
4415;BME280;2220;42.670;23.398;2023-07-31T03:11:26;92907.69;;;20.50;100.00
4415;BME280;2220;42.670;23.398;2023-07-31T03:13:51;92911.47;;;20.49;100.00
4415;BME280;2220;42.670;23.398;2023-07-31T03:16:17;92941.00;;;20.55;100.00
4415;BME280;2220;42.670;23.398;2023-07-31T03:18:43;92958.78;;;20.58;100.00
4415;BME280;2220;42.670;23.398;2023-07-31T03:21:08;92982.59;;;20.58;100.00
4415;BME280;2220;42.670;23.398;2023-07-31T03:23:33;92990.56;;;20.61;100.00
4415;BME280;2220;42.670;23.398;2023-07-31T03:26:01;93000.03;;;20.62;100.00
4415;BME280;2220;42.670;23.398;2023-07-31T03:28:28;93030.66;;;20.63;100.00
4415;BME280;2220;42.670;23.398;2023-07-31T03:30:53;93020.38;;;20.58;100.00
4415;BME280;2220;42.670;23.398;2023-07-31T03:33:19;93033.59;;;20.58;100.00
4415;BME280;2220;42.670;23.398;2023-07-31T03:35:45;93028.63;;;20.53;100.00
4415;BME280;2220;42.670;23.398;2023-07-31T03:38:10;93018.81;;;20.54;100.00
4415;BME280;2220;42.670;23.398;2023-07-31T03:40:36;93012.41;;;20.55;100.00
4415;BME280;2220;42.670;23.398;2023-07-31T03:43:01;93010.94;;;20.61;100.00
4415;BME280;2220;42.670;23.398;2023-07-31T03:45:26;93032.84;;;20.58;100.00
4415;BME280;2220;42.670;23.398;2023-07-31T03:47:52;93024.97;;;20.61;100.00
4415;BME280;2220;42.670;23.398;2023-07-31T03:50:19;93031.03;;;20.65;100.00
4415;BME280;2220;42.670;23.398;2023-07-31T03:52:45;93051.94;;;20.74;100.00
4415;BME280;2220;42.670;23.398;2023-07-31T03:55:10;93070.84;;;20.76;100.00
4415;BME280;2220;42.670;23.398;2023-07-31T03:57:36;93109.72;;;20.72;100.00
4415;BME280;2220;42.670;23.398;2023-07-31T04:00:01;93128.75;;;20.81;100.00
4415;BME280;2220;42.670;23.398;2023-07-31T04:02:26;93145.38;;;20.82;100.00
4415;BME280;2220;42.670;23.398;2023-07-31T04:04:52;93172.69;;;20.89;100.00
4415;BME280;2220;42.670;23.398;2023-07-31T04:07:17;93205.19;;;20.86;100.00
4415;BME280;2220;42.670;23.398;2023-07-31T04:09:43;93235.41;;;20.85;100.00
4415;BME280;2220;42.670;23.398;2023-07-31T04:12:08;93237.72;;;20.90;100.00
4415;BME280;2220;42.670;23.398;2023-07-31T04:14:33;93257.09;;;20.94;100.00
4415;BME280;2220;42.670;23.398;2023-07-31T04:16:59;93253.50;;;20.83;100.00
4415;BME280;2220;42.670;23.398;2023-07-31T04:19:24;93266.03;;;20.86;100.00
4415;BME280;2220;42.670;23.398;2023-07-31T04:21:50;93268.09;;;20.74;100.00
4415;BME280;2220;42.670;23.398;2023-07-31T04:24:15;93235.13;;;20.67;100.00
4415;BME280;2220;42.670;23.398;2023-07-31T04:26:41;93226.41;;;20.67;100.00
4415;BME280;2220;42.670;23.398;2023-07-31T04:29:06;93214.06;;;20.75;100.00
4415;BME280;2220;42.670;23.398;2023-07-31T04:31:33;93234.31;;;20.63;100.00
4415;BME280;2220;42.670;23.398;2023-07-31T04:33:59;93211.88;;;20.54;100.00
4415;BME280;2220;42.670;23.398;2023-07-31T04:36:24;93210.09;;;20.61;100.00
4415;BME280;2220;42.670;23.398;2023-07-31T04:38:50;93219.56;;;20.62;100.00
4415;BME280;2220;42.670;23.398;2023-07-31T04:41:15;93228.81;;;20.76;100.00
4415;BME280;2220;42.670;23.398;2023-07-31T04:43:41;93260.88;;;20.71;100.00
4415;BME280;2220;42.670;23.398;2023-07-31T04:46:06;93272.63;;;20.73;100.00
4415;BME280;2220;42.670;23.398;2023-07-31T04:48:32;93274.22;;;20.78;100.00
4415;BME280;2220;42.670;23.398;2023-07-31T04:50:57;93308.72;;;20.85;100.00
4415;BME280;2220;42.670;23.398;2023-07-31T04:53:23;93335.88;;;20.82;100.00
4415;BME280;2220;42.670;23.398;2023-07-31T04:55:48;93356.81;;;20.90;100.00
4415;BME280;2220;42.670;23.398;2023-07-31T04:58:14;93387.28;;;20.81;100.00
4415;BME280;2220;42.670;23.398;2023-07-31T05:00:39;93376.81;;;20.88;100.00
4415;BME280;2220;42.670;23.398;2023-07-31T05:03:04;93395.09;;;20.97;100.00
4415;BME280;2220;42.670;23.398;2023-07-31T05:05:30;93435.16;;;20.95;100.00
4415;BME280;2220;42.670;23.398;2023-07-31T05:07:55;93437.69;;;20.88;100.00
4415;BME280;2220;42.670;23.398;2023-07-31T05:10:21;93441.50;;;20.90;100.00
4415;BME280;2220;42.670;23.398;2023-07-31T05:12:46;93435.16;;;20.95;100.00
4415;BME280;2220;42.670;23.398;2023-07-31T05:15:12;93452.63;;;21.00;100.00
4415;BME280;2220;42.670;23.398;2023-07-31T05:17:37;93457.63;;;21.05;100.00
4415;BME280;2220;42.670;23.398;2023-07-31T05:20:03;93479.06;;;21.19;100.00
4415;BME280;2220;42.670;23.398;2023-07-31T05:22:28;93506.75;;;21.25;100.00
4415;BME280;2220;42.670;23.398;2023-07-31T05:24:54;93524.41;;;21.37;100.00
4415;BME280;2220;42.670;23.398;2023-07-31T05:27:19;93553.47;;;21.33;100.00
4415;BME280;2220;42.670;23.398;2023-07-31T05:29:45;93582.66;;;21.37;100.00
4415;BME280;2220;42.670;23.398;2023-07-31T05:32:11;93610.69;;;21.38;100.00
4415;BME280;2220;42.670;23.398;2023-07-31T05:34:37;93645.31;;;21.48;100.00
4415;BME280;2220;42.670;23.398;2023-07-31T05:37:02;93703.31;;;21.54;100.00
4415;BME280;2220;42.670;23.398;2023-07-31T05:39:28;93695.94;;;21.43;100.00
4415;BME280;2220;42.670;23.398;2023-07-31T05:41:53;93767.31;;;21.56;100.00
4415;BME280;2220;42.670;23.398;2023-07-31T05:44:18;93769.59;;;21.57;100.00
4415;BME280;2220;42.670;23.398;2023-07-31T05:46:44;93783.22;;;21.75;100.00
4415;BME280;2220;42.670;23.398;2023-07-31T05:49:09;93807.34;;;21.70;100.00
4415;BME280;2220;42.670;23.398;2023-07-31T05:51:35;93794.56;;;21.56;100.00
4415;BME280;2220;42.670;23.398;2023-07-31T05:54:00;93802.09;;;21.73;100.00
4415;BME280;2220;42.670;23.398;2023-07-31T05:56:26;93885.53;;;21.79;100.00
4415;BME280;2220;42.670;23.398;2023-07-31T05:58:52;93916.72;;;21.86;100.00
4415;BME280;2220;42.670;23.398;2023-07-31T06:01:18;93961.69;;;21.98;100.00
4415;BME280;2220;42.670;23.398;2023-07-31T06:03:43;93976.75;;;21.94;100.00
4415;BME280;2220;42.670;23.398;2023-07-31T06:06:09;94017.09;;;21.88;100.00
4415;BME280;2220;42.670;23.398;2023-07-31T06:08:34;94045.25;;;21.92;100.00
4415;BME280;2220;42.670;23.398;2023-07-31T06:11:00;94045.06;;;22.01;100.00
4415;BME280;2220;42.670;23.398;2023-07-31T06:13:25;94059.44;;;21.84;100.00
4415;BME280;2220;42.670;23.398;2023-07-31T06:15:51;94086.03;;;21.88;100.00
4415;BME280;2220;42.670;23.398;2023-07-31T06:18:17;94110.66;;;21.88;100.00
4415;BME280;2220;42.670;23.398;2023-07-31T06:20:42;94127.34;;;21.89;100.00
4415;BME280;2220;42.670;23.398;2023-07-31T06:23:08;94133.75;;;22.03;100.00
4415;BME280;2220;42.670;23.398;2023-07-31T06:25:33;94178.16;;;22.06;100.00
4415;BME280;2220;42.670;23.398;2023-07-31T06:27:58;94182.88;;;22.29;100.00
4415;BME280;2220;42.670;23.398;2023-07-31T06:30:24;94219.09;;;22.37;100.00
4415;BME280;2220;42.670;23.398;2023-07-31T06:32:49;94261.22;;;22.54;100.00
4415;BME280;2220;42.670;23.398;2023-07-31T06:35:15;94273.03;;;22.41;100.00
4415;BME280;2220;42.670;23.398;2023-07-31T06:37:40;94293.31;;;22.81;100.00
4415;BME280;2220;42.670;23.398;2023-07-31T06:40:09;94354.06;;;22.98;100.00
4415;BME280;2220;42.670;23.398;2023-07-31T06:42:35;94322.88;;;22.79;100.00
